• Join FlightAware (Why Join?)
  • Login
  • US Flag 
03:24PM EDT


 

Airport Tracker/Info


-or-


 

Live Flight TrackerFlight Track Log ✈ AWI3551 ✈ 02-Jul-2013 ✈ KBUF - KPHL

Flight Track Log - Related Links

Times and Time Zones

All times are in EDT time to prevent confusion due to time zone crossing. See the AWI3551 flight status page for this flight to view local times or setup timezone preferences in your user account.

Time Position Orientation Groundspeed Altitude Reporting Facility
EDT Latitude Longitude Course Direction KTS MPH feet Rate Location/Type
05:32AM 42.9500 -78.7167 174° South 161 185 1,500  Level Buffalo TRACON
05:33AM 43.0000 -78.6667 36° Northeast 207 238 3,500 1,800 Climbing Buffalo TRACON
05:34AM 42.6114 -78.6823 172° South  Level FlightAware Approximate
05:34AM 42.9625 -78.6172 136° Southeast 224 258 5,500  Level Cleveland Center
05:35AM 42.5045 -78.6619 173° South  Level FlightAware Approximate
05:35AM 42.8856 -78.6308 187° South 224 258 7,100  Level Cleveland Center
05:36AM 42.3970 -78.6500 180° South  Level FlightAware Approximate
05:36AM 42.8106 -78.6333 181° South 256 295 9,000  Level Cleveland Center
05:37AM 42.3029 -78.6409 174° South  Level FlightAware Approximate
05:37AM 42.7439 -78.6297 178° South 275 316 10,600  Level Cleveland Center
05:38AM 42.6622 -78.6153 173° South 281 323 12,500 1,860 Climbing Cleveland Center
05:39AM 42.5842 -78.5614 153° Southeast 297 342 14,400 1,740 Climbing Cleveland Center
05:40AM 42.5019 -78.5075 154° Southeast 314 361 16,000 1,620 Climbing Cleveland Center
05:41AM 42.4197 -78.4511 153° Southeast 319 367 17,700 1,380 Climbing Cleveland Center
05:42AM 42.3331 -78.3950 154° Southeast 324 373 18,800 1,080 Climbing Cleveland Center
05:43AM 42.2486 -78.3392 154° Southeast 329 379 19,900 1,080 Climbing Cleveland Center
05:44AM 42.1494 -78.2725 154° Southeast 349 402 21,000 540 Climbing Cleveland Center
05:45AM 42.0586 -78.2144 155° Southeast 354 407 21,000  Level Cleveland Center
05:46AM 41.9803 -78.1614 153° Southeast 348 400 21,000  Level Cleveland Center
05:47AM 41.8831 -78.0953 153° Southeast 348 400 21,000  Level Cleveland Center
05:48AM 41.7847 -78.0317 154° Southeast 348 400 21,000  Level New York Center
05:49AM 41.6989 -77.9722 153° Southeast 348 400 21,000  Level New York Center
05:50AM 41.6108 -77.9128 153° Southeast 348 400 21,000  Level New York Center
05:51AM 41.5244 -77.8564 154° Southeast 348 400 21,000  Level New York Center
05:52AM 41.4403 -77.8006 154° Southeast 348 400 21,000  Level New York Center
05:53AM 41.3542 -77.7444 154° Southeast 348 400 21,000  Level New York Center
05:54AM 41.2697 -77.6917 155° Southeast 348 400 21,000  Level New York Center
05:55AM 41.1856 -77.6333 152° Southeast 348 400 21,000 -240 Level New York Center
05:56AM 41.0992 -77.5778 154° Southeast 348 400 20,600 -780 Descending New York Center
05:57AM 41.0086 -77.5219 155° Southeast 353 406 19,500 -1,080 Descending New York Center
05:58AM 40.9142 -77.4603 154° Southeast 359 413 18,500 -780 Descending New York Center
05:59AM 40.8217 -77.3992 153° Southeast 372 428 18,000 -300 Descending New York Center
06:00AM 40.7311 -77.3411 154° Southeast 372 428 18,000  Level New York Center
06:01AM 40.6503 -77.2950 157° South 362 417 18,000  Level New York Center
06:02AM 40.5675 -77.2081 141° Southeast 344 396 18,000  Level New York Center
06:03AM 40.5208 -77.1081 122° Southeast 349 402 18,000  Level New York Center
06:04AM 40.4606 -76.9853 123° Southeast 355 409 18,000 -360 Level New York Center
06:05AM 40.4081 -76.8714 121° Southeast 364 419 17,300 -1,200 Descending New York Center
06:06AM 40.3533 -76.7631 124° Southeast 364 419 15,700 -1,620 Descending New York Center
06:07AM 40.3003 -76.6550 123° Southeast 364 419 14,100 -1,620 Descending New York Center
06:08AM 40.2508 -76.5583 124° Southeast 364 419 12,600 -1,680 Descending New York Center
06:09AM 40.1958 -76.4450 122° Southeast 351 404 10,800 -1,320 Descending New York Center
06:10AM 40.1483 -76.3514 124° Southeast 327 376 10,000 -420 Descending New York Center
06:11AM 40.1175 -76.2514 112° Southeast 299 344 10,000 -60 Level New York Center
06:12AM 40.1117 -76.1531 94° East 293 337 9,900 -600 Descending New York Center
06:13AM 40.0983 -76.0325 98° East 298 343 8,800 -1,200 Descending New York Center
06:14AM 40.0497 -75.9531 129° Southeast 277 319 7,600 -1,200 Descending New York Center
06:15AM 39.9989 -75.8761 131° Southeast 277 319 6,400 -840 Descending New York Center
06:16AM 39.9497 -75.8075 133° Southeast 270 311 6,000 -420 Descending New York Center
06:17AM 39.9106 -75.7450 129° Southeast 233 268 5,600 -720 Descending New York Center
06:18AM 39.8778 -75.6858 126° Southeast 215 247 4,600 -840 Descending New York Center
06:19AM 39.8558 -75.6114 111° Southeast 210 242 4,000 -660 Descending New York Center
06:20AM 39.8356 -75.5450 112° Southeast 210 242 3,300 -720 Descending New York Center